Главная страница
METAR-TAF:

METAR-TAF

Аэропорты :

Антигуа, Антигуа и Барбуда

широта: 17-07N, долгота: 061-47W, высота над уровнем моря: 8 м

Текущие метеонаблюдения

Эта сводка был подготовлена 36 минут назад, в 12:34 UTC
Ветер 4 Узел от северо-восточный
Температура 25°C
Влажность 89%
Давление 1014 hPa
Видимость 10 км и более
Рассеянная облачность на высоте 1600 фута
небольшие ливневые дожди

METAR: TAPA 261234Z 04004KT 9999 -SHRA BKN016 25/23 Q1014 NOSIG

Время: 09:10 (13:10 UTC)

Прогноз

Эта сводка был подготовлена 2 часа и 10 минут назад, в 11:00 UTC
Прогноз действительный с 26-го 12 UTC до 27-го 12 UTC
Ветер 13 Узел от восточно-северо-восточный
Видимость 10 км и более
Отдельные облака на высоте 2000 фута
Вероятность 40% :
временами
С 26-го 12 UTC до 26-го 18 UTC
ливневые дожди
Вероятность 40% :
временами
С 27-го 02 UTC до 27-го 10 UTC
ливневые дожди

TAF: TAPA 261100Z 2612/2712 07013KT 9999 SCT020 PROB40 TEMPO 2612/2618 SHRA PROB40 TEMPO 2702/2710 SHRA

Метеонаблюдения и прогнозы для более 4000 аэропортов (сводки METAR и TAF).

Имеющиеся станции представлены на карте желтыми и красными точками.

Чтобы увидеть название станции, наведите на нее мышь.

Затем щелкните, чтобы увидеть метеонаблюдения и метеопрогнозы.

Управление картой: чтобы увеличить масштаб, щелкните зеленые кнопки с черным крестиком; чтобы уменьшить масштаб, щелкните зеленую кнопку с тире; для просмотра соседних карт щелкайте зеленые стрелки.


METAR-TAF: